createdAt,value
2019-03-27T00:01:59.783Z,7.70
2019-03-27T00:04:28.715Z,7.60
2019-03-27T00:06:57.850Z,7.50
2019-03-27T00:09:26.524Z,7.50
2019-03-27T00:11:55.394Z,7.60
2019-03-27T00:14:24.214Z,7.60
2019-03-27T00:16:52.919Z,7.50
2019-03-27T00:19:22.118Z,7.50
2019-03-27T00:21:51.084Z,7.40
2019-03-27T00:26:44.385Z,7.50
2019-03-27T00:29:13.266Z,7.30
2019-03-27T00:31:42.063Z,7.20
2019-03-27T00:34:10.844Z,7.10
2019-03-27T00:36:39.496Z,7.00
2019-03-27T00:39:08.062Z,6.90
2019-03-27T00:41:36.887Z,6.90
2019-03-27T00:44:05.793Z,7.00
2019-03-27T00:46:34.792Z,7.00
2019-03-27T00:49:03.382Z,7.00
2019-03-27T00:51:31.925Z,7.10
2019-03-27T00:54:01.054Z,7.00
2019-03-27T00:56:30.289Z,6.90
2019-03-27T00:58:59.112Z,6.80
2019-03-27T01:01:27.812Z,6.80
2019-03-27T01:03:56.521Z,6.70
2019-03-27T01:06:25.279Z,6.70
2019-03-27T01:08:53.917Z,6.70
2019-03-27T01:11:22.675Z,6.60
2019-03-27T01:13:51.665Z,6.60
2019-03-27T01:16:20.351Z,6.50
2019-03-27T01:18:49.937Z,6.30
2019-03-27T01:21:18.747Z,6.20
2019-03-27T01:23:53.502Z,6.20
2019-03-27T01:26:22.150Z,6.20
2019-03-27T01:28:51.101Z,6.00
2019-03-27T01:31:19.939Z,5.90
2019-03-27T01:33:48.962Z,5.90
2019-03-27T01:36:18.131Z,6.00
2019-03-27T01:38:47.021Z,6.10
2019-03-27T01:41:16.096Z,6.20
2019-03-27T01:43:44.982Z,6.20
2019-03-27T01:46:13.965Z,6.20
2019-03-27T01:48:42.685Z,6.20
2019-03-27T01:51:11.473Z,6.00
2019-03-27T01:53:40.658Z,5.90
2019-03-27T01:56:09.566Z,5.80
2019-03-27T01:58:45.722Z,5.80
2019-03-27T02:01:12.974Z,5.90
2019-03-27T02:03:55.177Z,6.10
2019-03-27T02:06:24.261Z,6.10
2019-03-27T02:08:53.395Z,6.00
2019-03-27T02:11:22.257Z,5.80
2019-03-27T02:13:51.300Z,5.80
2019-03-27T02:16:20.229Z,5.80
2019-03-27T02:18:48.827Z,5.80
2019-03-27T02:21:17.820Z,5.90
2019-03-27T02:23:46.505Z,5.90
2019-03-27T02:26:15.182Z,5.80
2019-03-27T02:28:44.131Z,5.60
2019-03-27T02:31:12.980Z,5.50
2019-03-27T02:33:42.274Z,5.30
2019-03-27T02:36:11.217Z,5.10
2019-03-27T02:38:39.851Z,4.90
2019-03-27T02:41:08.739Z,4.90
2019-03-27T02:43:37.583Z,5.00
2019-03-27T02:46:23.389Z,5.00
2019-03-27T02:48:37.147Z,4.90
2019-03-27T02:51:05.944Z,4.80
2019-03-27T02:53:35.014Z,4.80
2019-03-27T02:56:04.539Z,4.70
2019-03-27T02:58:33.737Z,4.70
2019-03-27T03:01:05.451Z,4.70
2019-03-27T03:03:34.284Z,4.70
2019-03-27T03:06:03.175Z,4.70
2019-03-27T03:08:32.134Z,4.70
2019-03-27T03:11:01.019Z,4.80
2019-03-27T03:13:29.838Z,4.90
2019-03-27T03:15:59.042Z,4.80
2019-03-27T03:18:27.870Z,4.80
2019-03-27T03:20:56.822Z,4.80
2019-03-27T03:23:25.597Z,4.70
2019-03-27T03:25:54.168Z,4.60
2019-03-27T03:28:23.053Z,4.50
2019-03-27T03:30:52.085Z,4.40
2019-03-27T03:33:20.755Z,4.40
2019-03-27T03:35:49.735Z,4.30
2019-03-27T03:38:18.529Z,4.20
2019-03-27T03:40:47.827Z,4.20
2019-03-27T03:43:16.919Z,4.20
2019-03-27T03:45:45.488Z,4.10
2019-03-27T03:48:14.420Z,4.10
2019-03-27T03:50:43.811Z,4.00
2019-03-27T03:53:13.935Z,4.00
2019-03-27T03:55:42.999Z,4.00
2019-03-27T03:58:13.145Z,4.00
2019-03-27T04:00:42.033Z,4.00
2019-03-27T04:03:11.127Z,3.90
2019-03-27T04:05:40.193Z,3.90
2019-03-27T04:08:09.115Z,3.90
2019-03-27T04:10:38.268Z,3.90
2019-03-27T04:13:06.964Z,3.90
2019-03-27T04:15:35.780Z,3.90
2019-03-27T04:18:04.862Z,3.90
2019-03-27T04:20:33.771Z,3.90
2019-03-27T04:23:02.820Z,3.80
2019-03-27T04:25:53.861Z,3.70
2019-03-27T04:28:02.059Z,3.70
2019-03-27T04:30:30.741Z,3.70
2019-03-27T04:32:59.558Z,3.70
2019-03-27T04:35:28.445Z,3.70
2019-03-27T04:37:57.629Z,3.70
2019-03-27T04:40:26.636Z,3.70
2019-03-27T04:42:55.494Z,3.70
2019-03-27T04:45:24.402Z,3.70
2019-03-27T04:47:53.397Z,3.70
2019-03-27T04:50:41.067Z,3.60
2019-03-27T04:53:09.611Z,3.50
2019-03-27T04:55:37.998Z,3.40
2019-03-27T04:58:06.869Z,3.30
2019-03-27T05:00:35.753Z,3.40
2019-03-27T05:03:04.958Z,3.40
2019-03-27T05:05:33.645Z,3.50
2019-03-27T05:08:02.149Z,3.60
2019-03-27T05:10:31.137Z,3.50
2019-03-27T05:13:00.119Z,3.50
2019-03-27T05:15:28.889Z,3.40
2019-03-27T05:17:57.794Z,3.30
2019-03-27T05:20:28.764Z,3.30
2019-03-27T05:22:57.019Z,3.20
2019-03-27T05:25:26.107Z,3.20
2019-03-27T05:27:55.010Z,3.10
2019-03-27T05:30:30.213Z,3.10
2019-03-27T05:32:59.023Z,3.10
2019-03-27T05:35:27.926Z,3.20
2019-03-27T05:37:56.690Z,3.40
2019-03-27T05:40:25.283Z,3.40
2019-03-27T05:43:00.485Z,3.50
2019-03-27T05:45:24.821Z,3.50
2019-03-27T05:47:59.604Z,3.60
2019-03-27T05:50:24.119Z,3.60
2019-03-27T05:52:52.809Z,3.50
2019-03-27T05:55:21.406Z,3.50
2019-03-27T05:57:50.289Z,3.50
2019-03-27T06:00:19.076Z,3.50
2019-03-27T06:02:47.872Z,3.80
2019-03-27T06:05:16.757Z,4.80
2019-03-27T06:07:45.654Z,6.00
2019-03-27T06:10:16.392Z,7.30
2019-03-27T06:12:44.937Z,8.40
2019-03-27T06:15:13.862Z,9.50
2019-03-27T06:17:42.444Z,10.50
2019-03-27T06:20:11.437Z,11.20
2019-03-27T06:22:40.502Z,11.80
2019-03-27T06:25:09.391Z,12.50
2019-03-27T06:27:38.518Z,13.00
2019-03-27T06:30:07.276Z,13.20
2019-03-27T06:32:36.403Z,13.60
2019-03-27T06:35:06.009Z,14.30
2019-03-27T06:37:34.973Z,15.00
2019-03-27T06:40:03.792Z,15.50
2019-03-27T06:42:32.720Z,16.00
2019-03-27T06:45:01.347Z,15.90
2019-03-27T06:47:29.923Z,16.00
2019-03-27T06:49:58.516Z,16.40
2019-03-27T06:52:27.116Z,17.00
2019-03-27T06:54:55.495Z,17.50
2019-03-27T06:57:24.258Z,17.40
2019-03-27T06:59:52.970Z,17.80
2019-03-27T07:02:21.837Z,17.60
2019-03-27T07:04:50.957Z,16.90
2019-03-27T07:07:19.639Z,16.20
2019-03-27T07:09:48.633Z,15.20
2019-03-27T07:12:21.328Z,14.10
2019-03-27T07:14:48.459Z,12.90
2019-03-27T07:17:17.251Z,11.60
2019-03-27T07:19:46.101Z,10.40
2019-03-27T07:22:15.029Z,9.40
2019-03-27T07:24:43.927Z,8.80
2019-03-27T07:27:12.999Z,8.40
2019-03-27T07:29:41.573Z,8.00
2019-03-27T07:32:10.378Z,7.80
2019-03-27T07:34:38.931Z,7.60
2019-03-27T07:37:07.760Z,7.60
2019-03-27T07:39:36.548Z,7.50
2019-03-27T07:42:05.622Z,7.50
2019-03-27T07:44:34.328Z,7.50
2019-03-27T07:47:03.424Z,7.20
2019-03-27T07:49:32.576Z,7.20
2019-03-27T07:52:01.614Z,7.30
2019-03-27T07:54:30.610Z,7.40
2019-03-27T07:56:59.771Z,7.60
2019-03-27T07:59:28.183Z,7.70
2019-03-27T08:01:56.768Z,7.80
2019-03-27T08:04:25.247Z,7.80
2019-03-27T08:06:54.752Z,7.70
2019-03-27T08:09:23.745Z,7.70
2019-03-27T08:11:59.384Z,7.60
2019-03-27T08:14:24.379Z,7.70
2019-03-27T08:16:53.870Z,7.80
2019-03-27T08:19:23.201Z,7.90
2019-03-27T08:21:58.546Z,7.80
2019-03-27T08:24:28.562Z,7.70
2019-03-27T08:27:01.400Z,7.90
2019-03-27T08:29:30.333Z,8.10
2019-03-27T08:31:59.873Z,8.30
2019-03-27T08:34:29.101Z,8.40
2019-03-27T08:36:58.326Z,8.60
2019-03-27T08:39:27.432Z,8.70
2019-03-27T08:41:56.466Z,8.70
2019-03-27T08:44:25.610Z,8.80
2019-03-27T08:46:54.744Z,8.80
2019-03-27T08:49:24.016Z,8.90
2019-03-27T08:51:53.386Z,8.90
2019-03-27T08:54:23.337Z,9.00
2019-03-27T08:56:52.736Z,9.00
2019-03-27T08:59:22.441Z,9.00
2019-03-27T09:01:51.643Z,9.00
2019-03-27T09:04:23.548Z,9.10
2019-03-27T09:06:53.007Z,9.20
2019-03-27T09:09:22.295Z,9.30
2019-03-27T09:11:51.691Z,9.40
2019-03-27T09:14:21.326Z,9.50
2019-03-27T09:16:50.198Z,9.70
2019-03-27T09:19:19.702Z,9.80
2019-03-27T09:21:49.098Z,9.80
2019-03-27T09:24:20.997Z,10.00
2019-03-27T09:26:50.205Z,10.00
2019-03-27T09:29:19.524Z,10.00
2019-03-27T09:31:49.753Z,10.00
2019-03-27T09:34:18.760Z,10.10
2019-03-27T09:36:50.061Z,10.20
2019-03-27T09:39:19.198Z,10.20
2019-03-27T09:41:51.095Z,10.40
2019-03-27T09:44:20.174Z,10.40
2019-03-27T09:46:49.508Z,10.50
2019-03-27T09:49:19.249Z,10.50
2019-03-27T09:51:48.966Z,10.70
2019-03-27T09:54:18.518Z,10.80
2019-03-27T09:56:47.312Z,10.90
2019-03-27T09:59:17.015Z,10.90
2019-03-27T10:01:46.520Z,11.00
2019-03-27T10:04:15.489Z,11.00
2019-03-27T10:06:44.505Z,11.10
2019-03-27T10:09:13.780Z,11.20
2019-03-27T10:11:42.943Z,11.20
2019-03-27T10:14:12.197Z,11.40
2019-03-27T10:16:41.807Z,11.50
2019-03-27T10:19:11.107Z,11.70
2019-03-27T10:21:39.949Z,11.90
2019-03-27T10:24:08.707Z,12.10
2019-03-27T10:26:37.984Z,12.30
2019-03-27T10:29:07.060Z,12.40
2019-03-27T10:31:35.765Z,12.40
2019-03-27T10:34:04.656Z,12.50
2019-03-27T10:36:33.951Z,12.60
2019-03-27T10:39:03.635Z,12.70
2019-03-27T10:41:32.508Z,12.90
2019-03-27T10:44:01.612Z,13.00
2019-03-27T10:46:30.938Z,13.10
2019-03-27T10:49:00.180Z,13.20
2019-03-27T10:51:29.311Z,13.30
2019-03-27T10:53:58.408Z,13.50
2019-03-27T10:56:27.638Z,13.60
2019-03-27T10:58:56.623Z,13.60
2019-03-27T11:01:25.523Z,13.70
2019-03-27T11:03:54.507Z,13.70
2019-03-27T11:06:23.405Z,13.70
2019-03-27T11:08:52.195Z,13.90
2019-03-27T11:11:20.981Z,14.00
2019-03-27T11:13:50.179Z,14.10
2019-03-27T11:16:19.095Z,14.20
2019-03-27T11:18:47.859Z,14.30
2019-03-27T11:21:16.931Z,14.30
2019-03-27T11:23:46.253Z,14.40
2019-03-27T11:26:15.651Z,14.40
2019-03-27T11:28:44.718Z,14.40
2019-03-27T11:31:13.950Z,14.60
2019-03-27T11:33:43.148Z,14.60
2019-03-27T11:36:12.333Z,14.70
2019-03-27T11:38:44.404Z,14.80
2019-03-27T11:41:13.813Z,14.80
2019-03-27T11:43:54.324Z,14.90
2019-03-27T11:46:13.746Z,15.00
2019-03-27T11:48:47.550Z,15.00
2019-03-27T11:51:19.990Z,14.90
2019-03-27T11:53:54.934Z,14.80
2019-03-27T11:56:25.286Z,14.90
2019-03-27T11:59:23.973Z,14.90
2019-03-27T12:06:11.000Z,15.10
2019-03-27T12:12:23.445Z,15.20
2019-03-27T12:15:10.552Z,15.10
2019-03-27T12:17:38.845Z,15.20
2019-03-27T12:20:07.135Z,15.30
2019-03-27T12:22:35.484Z,15.30
2019-03-27T12:25:03.900Z,15.30
2019-03-27T12:27:32.187Z,15.40
2019-03-27T12:30:00.529Z,15.40
2019-03-27T12:32:28.833Z,15.50
2019-03-27T12:34:57.161Z,15.60
2019-03-27T12:37:25.473Z,15.60
2019-03-27T12:39:53.812Z,15.80
2019-03-27T12:42:22.086Z,15.80
2019-03-27T12:44:50.443Z,15.80
2019-03-27T12:47:18.895Z,15.80
2019-03-27T12:49:47.226Z,15.90
2019-03-27T12:52:15.589Z,15.90
2019-03-27T12:54:44.001Z,15.90
2019-03-27T12:57:12.271Z,16.00
2019-03-27T12:59:40.621Z,16.00
2019-03-27T13:02:08.903Z,15.90
2019-03-27T13:04:37.273Z,16.00
2019-03-27T13:07:05.575Z,16.10
2019-03-27T13:09:33.907Z,16.20
2019-03-27T13:12:02.589Z,16.20
2019-03-27T13:14:30.942Z,16.10
2019-03-27T13:16:59.250Z,16.10
2019-03-27T13:19:27.585Z,16.20
2019-03-27T13:21:55.879Z,16.20
2019-03-27T13:24:24.219Z,16.20
2019-03-27T13:26:52.540Z,16.30
2019-03-27T13:29:20.882Z,16.30
2019-03-27T13:31:49.189Z,16.30
2019-03-27T13:34:17.663Z,16.40
2019-03-27T13:36:47.738Z,16.40
2019-03-27T13:39:16.069Z,16.40
2019-03-27T13:41:44.427Z,16.40
2019-03-27T13:44:12.741Z,16.40
2019-03-27T13:46:41.099Z,16.40
2019-03-27T13:49:09.394Z,16.40
2019-03-27T13:51:40.900Z,16.40
2019-03-27T13:54:07.919Z,16.50
2019-03-27T13:56:36.337Z,16.70
2019-03-27T13:59:04.634Z,16.60
2019-03-27T14:01:32.983Z,16.60
2019-03-27T14:04:01.296Z,16.60
2019-03-27T14:06:29.646Z,16.60
2019-03-27T14:08:57.967Z,16.80
2019-03-27T14:11:26.316Z,16.90
2019-03-27T14:13:54.601Z,16.80
2019-03-27T14:16:22.924Z,16.70
2019-03-27T14:18:51.333Z,16.60
2019-03-27T14:21:23.075Z,16.60
2019-03-27T14:23:49.801Z,16.60
2019-03-27T14:26:18.153Z,16.70
2019-03-27T14:28:46.939Z,16.70
2019-03-27T14:31:15.298Z,16.70
2019-03-27T14:33:43.560Z,16.80
2019-03-27T14:36:11.894Z,16.90
2019-03-27T14:38:40.321Z,16.90
2019-03-27T14:41:08.676Z,17.00
2019-03-27T14:43:36.971Z,17.00
2019-03-27T14:46:05.261Z,16.90
2019-03-27T14:48:33.608Z,16.80
2019-03-27T14:51:01.993Z,16.80
2019-03-27T14:53:30.501Z,16.80
2019-03-27T14:55:58.792Z,16.80
2019-03-27T14:58:27.157Z,16.90
2019-03-27T15:00:55.440Z,16.90
2019-03-27T15:03:23.810Z,16.90
2019-03-27T15:05:52.094Z,16.80
2019-03-27T15:08:20.457Z,16.80
2019-03-27T15:10:48.747Z,16.80
2019-03-27T15:13:17.071Z,16.90
2019-03-27T15:15:45.405Z,16.90
2019-03-27T15:18:14.323Z,17.00
2019-03-27T15:20:42.590Z,17.20
2019-03-27T15:23:10.900Z,17.20
2019-03-27T15:25:39.165Z,17.20
2019-03-27T15:28:07.525Z,17.10
2019-03-27T15:30:35.936Z,17.10
2019-03-27T15:33:04.253Z,17.10
2019-03-27T15:35:32.543Z,17.10
2019-03-27T15:38:00.865Z,17.00
2019-03-27T15:40:47.849Z,17.10
2019-03-27T15:43:16.165Z,17.00
2019-03-27T15:45:44.437Z,17.00
2019-03-27T15:48:12.746Z,17.00
2019-03-27T15:50:54.376Z,17.10
2019-03-27T15:53:11.410Z,17.00
2019-03-27T15:55:39.649Z,17.00
2019-03-27T15:58:08.215Z,17.00
2019-03-27T16:00:36.454Z,17.00
2019-03-27T16:03:04.829Z,17.00
2019-03-27T16:05:33.384Z,17.00
2019-03-27T16:08:01.833Z,16.90
2019-03-27T16:10:30.453Z,16.90
2019-03-27T16:12:58.784Z,16.90
2019-03-27T16:15:27.441Z,16.90
2019-03-27T16:17:55.850Z,16.90
2019-03-27T16:20:25.124Z,16.90
2019-03-27T16:22:54.269Z,16.90
2019-03-27T16:25:23.077Z,16.90
2019-03-27T16:27:51.354Z,16.80
2019-03-27T16:30:19.873Z,16.80
2019-03-27T16:32:48.189Z,16.80
2019-03-27T16:35:16.450Z,16.80
2019-03-27T16:37:44.909Z,16.80
2019-03-27T16:40:17.364Z,16.80
2019-03-27T16:42:45.933Z,16.80
2019-03-27T16:45:14.221Z,16.80
2019-03-27T16:47:42.593Z,16.80
2019-03-27T16:50:11.482Z,16.70
2019-03-27T16:52:39.969Z,16.70
2019-03-27T16:55:08.340Z,16.60
2019-03-27T16:57:36.688Z,16.60
2019-03-27T17:00:05.993Z,16.60
2019-03-27T17:02:34.279Z,16.50
2019-03-27T17:05:02.592Z,16.50
2019-03-27T17:07:30.906Z,16.40
2019-03-27T17:09:59.173Z,16.30
2019-03-27T17:12:27.581Z,16.20
2019-03-27T17:14:56.279Z,16.20
2019-03-27T17:17:24.686Z,16.10
2019-03-27T17:19:53.037Z,16.10
2019-03-27T17:22:21.926Z,16.00
2019-03-27T17:24:50.169Z,15.90
2019-03-27T17:27:18.621Z,15.80
2019-03-27T17:29:47.271Z,15.80
2019-03-27T17:32:15.778Z,15.70
2019-03-27T17:34:44.043Z,15.60
2019-03-27T17:37:12.334Z,15.60
2019-03-27T17:39:40.915Z,15.50
2019-03-27T17:42:09.323Z,15.40
2019-03-27T17:44:37.899Z,15.40
2019-03-27T17:47:06.539Z,15.30
2019-03-27T17:49:34.819Z,15.20
2019-03-27T17:52:03.121Z,15.10
2019-03-27T17:54:31.393Z,15.00
2019-03-27T17:56:59.825Z,14.90
2019-03-27T17:59:28.148Z,14.90
2019-03-27T18:01:56.793Z,14.80
2019-03-27T18:04:25.082Z,14.70
2019-03-27T18:06:53.361Z,14.70
2019-03-27T18:09:22.021Z,14.60
2019-03-27T18:11:50.343Z,14.60
2019-03-27T18:14:18.605Z,14.40
2019-03-27T18:16:46.877Z,14.40
2019-03-27T18:19:15.134Z,14.30
2019-03-27T18:21:43.425Z,14.10
2019-03-27T18:24:11.682Z,14.00
2019-03-27T18:26:40.221Z,14.00
2019-03-27T18:29:08.613Z,13.90
2019-03-27T18:31:37.094Z,13.80
2019-03-27T18:34:10.597Z,13.70
2019-03-27T18:36:39.019Z,13.70
2019-03-27T18:39:08.389Z,13.50
2019-03-27T18:41:36.849Z,13.50
2019-03-27T18:44:05.135Z,13.40
2019-03-27T18:46:33.517Z,13.40
2019-03-27T18:49:01.809Z,13.40
2019-03-27T18:51:30.156Z,13.40
2019-03-27T18:53:59.884Z,13.40
2019-03-27T18:56:28.459Z,13.40
2019-03-27T18:58:56.726Z,13.30
2019-03-27T19:01:25.001Z,13.20
2019-03-27T19:03:53.445Z,13.20
2019-03-27T19:06:21.705Z,13.10
2019-03-27T19:08:49.965Z,13.00
2019-03-27T19:11:18.221Z,13.00
2019-03-27T19:13:46.505Z,12.90
2019-03-27T19:16:14.791Z,12.80
2019-03-27T19:18:43.176Z,12.80
2019-03-27T19:21:11.581Z,12.70
2019-03-27T19:23:40.038Z,12.70
2019-03-27T19:26:08.358Z,12.80
2019-03-27T19:28:36.709Z,12.80
2019-03-27T19:31:04.950Z,12.70
2019-03-27T19:33:33.226Z,12.50
2019-03-27T19:36:01.488Z,12.40
2019-03-27T19:38:29.849Z,12.30
2019-03-27T19:40:58.270Z,12.20
2019-03-27T19:43:26.545Z,12.20
2019-03-27T19:45:57.381Z,12.10
2019-03-27T19:48:24.973Z,12.20
2019-03-27T19:50:53.266Z,12.20
2019-03-27T19:53:21.533Z,12.30
2019-03-27T19:55:50.130Z,12.20
2019-03-27T19:58:18.595Z,12.20
2019-03-27T20:00:47.218Z,12.20
2019-03-27T20:03:15.693Z,12.10
2019-03-27T20:05:44.324Z,12.00
2019-03-27T20:08:12.758Z,11.90
2019-03-27T20:10:41.353Z,11.90
2019-03-27T20:13:09.713Z,11.90
2019-03-27T20:15:38.333Z,11.80
2019-03-27T20:18:06.689Z,11.80
2019-03-27T20:20:35.122Z,11.70
2019-03-27T20:23:14.165Z,11.60
2019-03-27T20:25:34.577Z,11.50
2019-03-27T20:28:03.089Z,11.40
2019-03-27T20:30:31.505Z,11.40
2019-03-27T20:32:59.965Z,11.30
2019-03-27T20:35:28.397Z,11.30
2019-03-27T20:37:57.401Z,11.20
2019-03-27T20:40:27.717Z,11.20
2019-03-27T20:42:56.469Z,11.20
2019-03-27T20:45:25.093Z,11.20
2019-03-27T20:47:53.457Z,11.20
2019-03-27T20:50:22.355Z,11.10
2019-03-27T20:52:51.061Z,11.10
2019-03-27T20:55:29.540Z,11.10
2019-03-27T20:57:49.942Z,11.10
2019-03-27T21:00:18.303Z,11.10
2019-03-27T21:02:46.912Z,11.10
2019-03-27T21:05:15.721Z,11.20
2019-03-27T21:07:44.033Z,11.10
2019-03-27T21:10:13.008Z,11.10
2019-03-27T21:12:41.361Z,11.00
2019-03-27T21:15:09.924Z,11.00
2019-03-27T21:17:38.488Z,11.00
2019-03-27T21:20:06.986Z,11.00
2019-03-27T21:22:35.371Z,11.00
2019-03-27T21:25:08.992Z,10.90
2019-03-27T21:27:33.945Z,10.90
2019-03-27T21:30:02.620Z,10.80
2019-03-27T21:32:31.121Z,10.70
2019-03-27T21:34:59.684Z,10.60
2019-03-27T21:37:28.109Z,10.50
2019-03-27T21:39:56.714Z,10.50
2019-03-27T21:42:25.369Z,10.40
2019-03-27T21:44:53.853Z,10.40
2019-03-27T21:47:22.134Z,10.40
2019-03-27T21:49:50.614Z,10.40
2019-03-27T21:52:19.035Z,10.40
2019-03-27T21:54:47.578Z,10.30
2019-03-27T21:57:15.889Z,10.40
2019-03-27T21:59:44.338Z,10.30
2019-03-27T22:02:12.817Z,10.30
2019-03-27T22:04:41.292Z,10.30
2019-03-27T22:07:09.721Z,10.20
2019-03-27T22:09:38.131Z,10.20
2019-03-27T22:12:06.449Z,10.20
2019-03-27T22:14:34.711Z,10.10
2019-03-27T22:17:03.011Z,10.00
2019-03-27T22:19:31.396Z,10.00
2019-03-27T22:21:59.650Z,9.90
2019-03-27T22:24:27.892Z,9.80
2019-03-27T22:26:56.158Z,9.80
2019-03-27T22:29:24.410Z,9.80
2019-03-27T22:31:53.129Z,9.70
2019-03-27T22:34:21.400Z,9.70
2019-03-27T22:36:49.670Z,9.60
2019-03-27T22:39:17.953Z,9.60
2019-03-27T22:41:46.363Z,9.50
2019-03-27T22:44:14.704Z,9.50
2019-03-27T22:46:43.248Z,9.50
2019-03-27T22:49:11.587Z,9.40
2019-03-27T22:51:40.005Z,9.30
2019-03-27T22:54:08.418Z,9.30
2019-03-27T22:56:36.869Z,9.30
2019-03-27T22:59:05.285Z,9.20
2019-03-27T23:01:42.100Z,9.20
2019-03-27T23:04:10.610Z,9.20
2019-03-27T23:06:39.005Z,9.10
2019-03-27T23:09:07.639Z,9.20
2019-03-27T23:11:36.085Z,9.20
2019-03-27T23:14:04.350Z,9.20
2019-03-27T23:16:32.745Z,9.20
2019-03-27T23:19:01.153Z,9.20
2019-03-27T23:21:29.542Z,9.20
2019-03-27T23:23:57.818Z,9.20
2019-03-27T23:26:26.107Z,9.10
2019-03-27T23:28:54.490Z,9.10
2019-03-27T23:31:22.942Z,9.00
2019-03-27T23:33:51.358Z,9.10
2019-03-27T23:36:19.926Z,9.00
2019-03-27T23:38:48.430Z,8.90
2019-03-27T23:41:16.799Z,8.80
2019-03-27T23:43:45.139Z,8.70
2019-03-27T23:46:13.557Z,8.60
2019-03-27T23:48:42.042Z,8.60
2019-03-27T23:51:10.658Z,8.60
2019-03-27T23:53:38.904Z,8.50
2019-03-27T23:56:16.404Z,8.50
2019-03-27T23:58:37.232Z,8.40
